createdAt,value
2019-03-25T00:03:47.411Z,79.01
2019-03-25T00:09:13.523Z,79.48
2019-03-25T00:14:38.102Z,79.42
2019-03-25T00:20:02.673Z,79.02
2019-03-25T00:25:27.911Z,78.87
2019-03-25T00:30:52.601Z,78.38
2019-03-25T00:36:16.949Z,78.32
2019-03-25T00:41:41.820Z,78.45
2019-03-25T00:47:06.745Z,78.96
2019-03-25T00:52:30.943Z,79.47
2019-03-25T00:57:56.397Z,79.80
2019-03-25T01:03:21.032Z,79.80
2019-03-25T01:08:46.309Z,79.84
2019-03-25T01:14:10.584Z,79.42
2019-03-25T01:19:35.644Z,78.92
2019-03-25T01:25:02.355Z,78.13
2019-03-25T01:30:27.820Z,78.56
2019-03-25T01:35:52.773Z,78.06
2019-03-25T01:41:17.824Z,78.12
2019-03-25T01:46:43.266Z,78.77
2019-03-25T01:52:08.524Z,79.24
2019-03-25T01:57:33.994Z,79.22
2019-03-25T02:02:59.169Z,79.41
2019-03-25T02:08:24.062Z,79.58
2019-03-25T02:13:48.466Z,79.90
2019-03-25T02:19:12.788Z,79.65
2019-03-25T02:24:37.818Z,79.33
2019-03-25T02:30:02.093Z,78.82
2019-03-25T02:35:26.552Z,78.35
2019-03-25T02:40:52.236Z,78.19
2019-03-25T02:46:17.162Z,78.60
2019-03-25T02:51:42.584Z,78.56
2019-03-25T02:57:07.516Z,78.76
2019-03-25T03:02:32.435Z,79.14
2019-03-25T03:07:57.966Z,79.19
2019-03-25T03:13:23.248Z,79.18
2019-03-25T03:18:47.464Z,78.83
2019-03-25T03:24:12.745Z,78.23
2019-03-25T03:29:37.202Z,78.12
2019-03-25T03:35:02.182Z,77.47
2019-03-25T03:40:26.965Z,77.09
2019-03-25T03:45:51.796Z,77.23
2019-03-25T03:51:16.745Z,77.62
2019-03-25T03:56:41.815Z,77.70
2019-03-25T04:02:06.551Z,76.96
2019-03-25T04:07:30.996Z,76.52
2019-03-25T04:12:55.956Z,76.93
2019-03-25T04:18:20.189Z,77.19
2019-03-25T04:23:46.434Z,77.40
2019-03-25T04:29:11.343Z,77.80
2019-03-25T04:34:36.682Z,78.17
2019-03-25T04:40:00.836Z,78.29
2019-03-25T04:45:26.582Z,78.11
2019-03-25T04:50:50.930Z,77.50
2019-03-25T04:56:15.951Z,77.09
2019-03-25T05:01:41.291Z,75.99
2019-03-25T05:07:05.463Z,75.32
2019-03-25T05:12:29.766Z,75.20
2019-03-25T05:17:55.015Z,74.96
2019-03-25T05:23:20.430Z,74.62
2019-03-25T05:28:45.001Z,74.16
2019-03-25T05:34:09.339Z,73.97
2019-03-25T05:39:34.644Z,74.13
2019-03-25T05:45:00.071Z,74.34
2019-03-25T05:50:25.290Z,73.63
2019-03-25T05:55:50.945Z,73.57
2019-03-25T06:01:15.726Z,74.04
2019-03-25T06:06:40.125Z,75.62
2019-03-25T06:12:04.510Z,79.66
2019-03-25T06:17:30.122Z,82.57
2019-03-25T06:22:55.230Z,81.77
2019-03-25T06:28:20.553Z,83.83
2019-03-25T06:33:45.065Z,87.47
2019-03-25T06:39:09.238Z,88.52
2019-03-25T06:44:33.737Z,88.99
2019-03-25T06:49:58.721Z,90.33
2019-03-25T06:55:24.291Z,90.86
2019-03-25T07:00:49.534Z,91.53
2019-03-25T07:06:14.896Z,92.18
2019-03-25T07:11:40.354Z,92.62
2019-03-25T07:17:05.183Z,93.05
2019-03-25T07:22:29.345Z,93.65
2019-03-25T07:27:54.679Z,94.17
2019-03-25T07:33:19.142Z,94.54
2019-03-25T07:38:44.304Z,94.75
2019-03-25T07:44:08.930Z,94.65
2019-03-25T07:49:33.801Z,94.57
2019-03-25T07:54:58.975Z,94.56
2019-03-25T08:00:24.447Z,94.23
2019-03-25T08:05:49.087Z,94.18
2019-03-25T08:11:13.533Z,93.78
2019-03-25T08:16:38.571Z,93.10
2019-03-25T08:22:03.802Z,92.53
2019-03-25T08:27:29.142Z,91.75
2019-03-25T08:32:54.385Z,91.43
2019-03-25T08:38:19.677Z,91.30
2019-03-25T08:43:44.994Z,90.74
2019-03-25T08:49:11.936Z,90.54
2019-03-25T08:54:37.820Z,90.62
2019-03-25T09:00:02.388Z,90.16
2019-03-25T09:05:28.574Z,89.40
2019-03-25T09:10:53.845Z,88.12
2019-03-25T09:16:18.780Z,88.29
2019-03-25T09:21:43.002Z,87.59
2019-03-25T09:27:07.936Z,86.79
2019-03-25T09:32:33.492Z,85.45
2019-03-25T09:37:58.699Z,84.76
2019-03-25T09:43:23.967Z,83.12
2019-03-25T09:48:49.157Z,83.12
2019-03-25T09:54:13.669Z,80.91
2019-03-25T09:59:38.639Z,80.07
2019-03-25T10:05:03.447Z,78.52
2019-03-25T10:10:28.678Z,74.03
2019-03-25T10:15:53.307Z,73.24
2019-03-25T10:21:18.554Z,73.20
2019-03-25T10:26:44.035Z,71.35
2019-03-25T10:32:08.703Z,72.11
2019-03-25T10:37:33.377Z,69.50
2019-03-25T10:42:57.679Z,72.85
2019-03-25T10:48:23.372Z,79.05
2019-03-25T10:53:47.624Z,79.36
2019-03-25T10:59:13.175Z,76.12
2019-03-25T11:04:38.449Z,75.35
2019-03-25T11:10:03.586Z,74.95
2019-03-25T11:15:28.006Z,73.23
2019-03-25T11:20:53.447Z,70.00
2019-03-25T11:26:17.936Z,62.76
2019-03-25T11:31:42.080Z,63.89
2019-03-25T11:37:07.313Z,64.99
2019-03-25T11:42:32.297Z,69.07
2019-03-25T11:47:57.090Z,71.71
2019-03-25T11:53:21.643Z,69.49
2019-03-25T11:58:46.284Z,63.94
2019-03-25T12:04:11.261Z,59.38
2019-03-25T12:09:36.444Z,56.33
2019-03-25T12:15:02.125Z,56.69
2019-03-25T12:20:27.301Z,55.77
2019-03-25T12:25:51.722Z,54.09
2019-03-25T12:31:17.248Z,50.53
2019-03-25T12:36:42.440Z,50.53
2019-03-25T12:42:07.153Z,54.44
2019-03-25T12:47:31.598Z,61.93
2019-03-25T12:52:56.769Z,62.66
2019-03-25T12:58:22.377Z,57.30
2019-03-25T13:03:47.229Z,50.73
2019-03-25T13:09:12.357Z,51.62
2019-03-25T13:14:36.738Z,54.77
2019-03-25T13:20:01.925Z,56.44
2019-03-25T13:25:26.963Z,58.60
2019-03-25T13:30:52.415Z,62.64
2019-03-25T13:36:17.408Z,71.27
2019-03-25T13:41:42.633Z,71.70
2019-03-25T13:47:07.521Z,64.97
2019-03-25T13:52:33.059Z,63.48
2019-03-25T13:57:58.060Z,62.79
2019-03-25T14:03:22.334Z,65.60
2019-03-25T14:08:47.682Z,64.93
2019-03-25T14:14:12.086Z,71.79
2019-03-25T14:19:37.064Z,83.62
2019-03-25T14:25:01.300Z,83.05
2019-03-25T14:30:26.187Z,79.65
2019-03-25T14:35:50.954Z,79.36
2019-03-25T14:41:16.531Z,77.42
2019-03-25T14:46:41.418Z,77.35
2019-03-25T14:52:05.682Z,76.41
2019-03-25T14:57:30.483Z,67.86
2019-03-25T15:02:54.915Z,59.26
2019-03-25T15:08:20.089Z,60.24
2019-03-25T15:13:44.286Z,58.42
2019-03-25T15:19:09.796Z,62.29
2019-03-25T15:24:34.340Z,63.39
2019-03-25T15:29:59.276Z,61.75
2019-03-25T15:35:23.660Z,64.33
2019-03-25T15:40:48.685Z,63.68
2019-03-25T15:46:14.053Z,59.47
2019-03-25T15:51:39.548Z,59.31
2019-03-25T15:57:04.615Z,60.55
2019-03-25T16:02:29.911Z,60.87
2019-03-25T16:07:54.971Z,61.69
2019-03-25T16:13:20.387Z,60.70
2019-03-25T16:18:45.753Z,60.01
2019-03-25T16:24:11.310Z,61.95
2019-03-25T16:29:36.577Z,61.97
2019-03-25T16:35:01.711Z,61.36
2019-03-25T16:40:26.697Z,63.02
2019-03-25T16:45:51.816Z,64.71
2019-03-25T16:51:16.218Z,64.32
2019-03-25T16:56:41.175Z,64.96
2019-03-25T17:02:07.215Z,67.36
2019-03-25T17:07:32.239Z,68.34
2019-03-25T17:12:56.826Z,68.97
2019-03-25T17:18:21.964Z,70.28
2019-03-25T17:23:46.780Z,71.13
2019-03-25T17:29:11.822Z,73.04
2019-03-25T17:34:36.822Z,73.78
2019-03-25T17:40:02.102Z,73.43
2019-03-25T17:45:27.582Z,74.80
2019-03-25T17:50:53.098Z,76.08
2019-03-25T17:56:17.512Z,77.17
2019-03-25T18:01:41.882Z,77.98
2019-03-25T18:07:07.102Z,78.53
2019-03-25T18:12:38.762Z,78.56
2019-03-25T18:17:57.291Z,78.74
2019-03-25T18:23:21.503Z,77.96
2019-03-25T18:28:47.023Z,78.15
2019-03-25T18:34:11.413Z,77.71
2019-03-25T18:39:36.756Z,73.81
2019-03-25T18:45:02.358Z,69.06
2019-03-25T18:50:27.366Z,67.48
2019-03-25T18:55:52.621Z,68.13
2019-03-25T19:01:17.685Z,67.50
2019-03-25T19:06:45.768Z,66.11
2019-03-25T19:12:11.063Z,66.07
2019-03-25T19:17:36.481Z,66.32
2019-03-25T19:23:01.743Z,66.36
2019-03-25T19:28:26.608Z,65.83
2019-03-25T19:33:51.216Z,66.90
2019-03-25T19:39:15.599Z,67.46
2019-03-25T19:44:39.939Z,67.82
2019-03-25T19:50:05.897Z,67.83
2019-03-25T19:55:30.951Z,68.28
2019-03-25T20:00:55.884Z,68.87
2019-03-25T20:06:26.072Z,69.62
2019-03-25T20:11:47.714Z,70.14
2019-03-25T20:17:12.128Z,70.70
2019-03-25T20:22:36.597Z,71.45
2019-03-25T20:28:01.681Z,71.53
2019-03-25T20:33:26.961Z,72.50
2019-03-25T20:38:52.367Z,73.35
2019-03-25T20:44:17.178Z,73.93
2019-03-25T20:49:42.305Z,74.68
2019-03-25T20:55:08.829Z,75.57
2019-03-25T21:00:48.052Z,75.94
2019-03-25T21:06:12.595Z,76.62
2019-03-25T21:11:37.337Z,77.17
2019-03-25T21:17:02.778Z,77.69
2019-03-25T21:22:27.837Z,78.92
2019-03-25T21:27:53.217Z,79.48
2019-03-25T21:33:18.311Z,80.14
2019-03-25T21:38:42.425Z,80.71
2019-03-25T21:44:06.914Z,80.91
2019-03-25T21:49:31.590Z,81.27
2019-03-25T21:54:57.979Z,81.75
2019-03-25T22:00:23.549Z,82.36
2019-03-25T22:05:47.858Z,82.63
2019-03-25T22:11:13.065Z,82.95
2019-03-25T22:16:38.329Z,83.28
2019-03-25T22:22:02.457Z,83.39
2019-03-25T22:27:27.956Z,83.63
2019-03-25T22:32:53.193Z,84.33
2019-03-25T22:38:18.180Z,85.08
2019-03-25T22:43:43.868Z,85.53
2019-03-25T22:49:09.178Z,85.95
2019-03-25T22:54:34.265Z,86.13
2019-03-25T22:59:59.760Z,86.44
2019-03-25T23:05:23.916Z,86.81
2019-03-25T23:10:48.009Z,87.11
2019-03-25T23:16:13.204Z,87.84
2019-03-25T23:21:38.399Z,87.11
2019-03-25T23:27:03.924Z,87.19
2019-03-25T23:32:28.306Z,87.58
2019-03-25T23:37:53.719Z,87.63
2019-03-25T23:43:18.442Z,87.12
2019-03-25T23:48:42.858Z,86.15
2019-03-25T23:54:14.862Z,84.69
2019-03-25T23:59:41.294Z,84.65
